Time;durP1;ratioP1;P1;durP2;ratioP2;P2;SDS_P1;SDS_P2;PMS_P1;PMS_P2;Temp;Humidity;BMP_temperature;BMP_pressure;BME280_temperature;BME280_humidity;BME280_pressure;Samples;Min_cycle;Max_cycle;Signal;HPM_P1;HPM_P2
2021/06/24 00:01:43;;;;;;;7.53;6.78;;;11.40;99.90;;;;;;5008587;28;20050;-46
2021/06/24 00:04:29;;;;;;;10.55;6.38;;;11.30;99.90;;;;;;5006494;28;20549;-45
2021/06/24 00:06:58;;;;;;;7.30;6.55;;;11.20;99.90;;;;;;5005388;28;20475;-48
2021/06/24 00:09:27;;;;;;;8.18;7.38;;;11.10;99.90;;;;;;4988129;28;20487;-46
2021/06/24 00:11:56;;;;;;;10.35;7.35;;;11.10;99.90;;;;;;4988327;28;20502;-46
2021/06/24 00:14:22;;;;;;;11.60;7.05;;;11.10;99.90;;;;;;4989457;28;20061;-46
2021/06/24 00:16:49;;;;;;;9.20;7.70;;;11.00;99.90;;;;;;5007325;28;20054;-47
2021/06/24 00:19:18;;;;;;;10.23;7.65;;;11.00;99.90;;;;;;5009207;28;20136;-46
2021/06/24 00:21:44;;;;;;;11.50;8.52;;;10.90;99.90;;;;;;5007593;28;20050;-49
2021/06/24 00:24:12;;;;;;;11.32;8.63;;;10.90;99.90;;;;;;5008091;28;20088;-45
2021/06/24 00:26:42;;;;;;;10.75;7.72;;;10.80;99.90;;;;;;5008585;28;20085;-44
2021/06/24 00:29:11;;;;;;;11.35;9.48;;;10.80;99.90;;;;;;4999456;28;20078;-44
2021/06/24 00:31:37;;;;;;;10.18;8.57;;;10.80;99.90;;;;;;4988824;28;20626;-47
2021/06/24 00:34:06;;;;;;;9.55;8.40;;;10.70;99.90;;;;;;4989535;28;20124;-47
2021/06/24 00:36:35;;;;;;;11.45;8.88;;;10.80;99.90;;;;;;4992145;28;20054;-47
2021/06/24 00:39:02;;;;;;;9.00;8.07;;;10.90;99.90;;;;;;4993385;28;20054;-46
2021/06/24 00:41:29;;;;;;;9.75;8.10;;;10.80;99.90;;;;;;4997388;28;20692;-45
2021/06/24 00:44:01;;;;;;;11.18;8.90;;;10.80;99.90;;;;;;4987763;28;20043;-47
2021/06/24 00:46:27;;;;;;;10.90;8.07;;;10.80;99.90;;;;;;4989109;28;20454;-47
2021/06/24 00:48:58;;;;;;;10.80;8.25;;;10.90;99.90;;;;;;4988174;28;20049;-47
2021/06/24 00:51:25;;;;;;;11.77;8.35;;;10.80;99.90;;;;;;4987134;28;20049;-49
2021/06/24 00:53:52;;;;;;;11.82;8.52;;;10.80;99.90;;;;;;5005943;28;20053;-45
2021/06/24 00:56:30;;;;;;;10.23;8.68;;;10.80;99.90;;;;;;5005644;28;20046;-46
2021/06/24 00:59:04;;;;;;;10.18;9.18;;;10.80;99.90;;;;;;5007845;28;20434;-46
2021/06/24 01:01:33;;;;;;;12.27;8.52;;;10.80;99.90;;;;;;5006137;28;20083;-47
2021/06/24 01:04:02;;;;;;;11.93;8.52;;;10.80;99.90;;;;;;5005911;28;20056;-46
2021/06/24 01:06:31;;;;;;;10.00;8.77;;;10.80;99.90;;;;;;5001814;28;20065;-47
2021/06/24 01:08:57;;;;;;;11.35;8.55;;;10.70;99.90;;;;;;4988687;28;20050;-45
2021/06/24 01:11:29;;;;;;;9.45;8.13;;;10.60;99.90;;;;;;4986637;28;20066;-46
2021/06/24 01:13:58;;;;;;;12.20;8.85;;;10.70;99.90;;;;;;4986726;28;20050;-48
2021/06/24 01:16:24;;;;;;;8.98;7.82;;;10.60;99.90;;;;;;4985999;28;20486;-47
2021/06/24 01:18:52;;;;;;;9.80;8.05;;;10.70;99.90;;;;;;4988796;28;20054;-45
2021/06/24 01:21:21;;;;;;;10.57;8.15;;;10.60;99.90;;;;;;4988092;28;20453;-48
2021/06/24 01:23:50;;;;;;;9.98;8.20;;;10.70;99.90;;;;;;5002742;28;20128;-46
2021/06/24 01:26:22;;;;;;;13.05;8.55;;;10.70;99.90;;;;;;5007261;28;20052;-48
2021/06/24 01:28:49;;;;;;;13.65;8.75;;;10.80;99.90;;;;;;5006250;28;20050;-45
2021/06/24 01:31:17;;;;;;;10.45;8.52;;;10.80;99.90;;;;;;5006135;28;20761;-47
2021/06/24 01:33:44;;;;;;;10.18;9.18;;;10.90;99.90;;;;;;5005719;28;20054;-45
2021/06/24 01:36:13;;;;;;;10.10;8.82;;;10.90;99.90;;;;;;5003565;28;20462;-47
2021/06/24 01:38:45;;;;;;;9.07;8.15;;;11.00;99.90;;;;;;5004216;28;20168;-46
2021/06/24 01:41:27;;;;;;;8.90;8.00;;;11.00;99.90;;;;;;5005273;28;20050;-48
2021/06/24 01:43:57;;;;;;;10.85;8.93;;;11.00;99.90;;;;;;5004095;28;20050;-48
2021/06/24 01:46:26;;;;;;;11.02;8.85;;;11.00;99.90;;;;;;4990136;28;20103;-46
2021/06/24 01:48:57;;;;;;;10.00;8.80;;;11.00;99.90;;;;;;4987527;28;20104;-46
2021/06/24 01:51:26;;;;;;;9.32;8.32;;;11.00;99.90;;;;;;4991756;28;20398;-46
2021/06/24 01:53:53;;;;;;;11.52;8.35;;;11.00;99.90;;;;;;4988044;28;20053;-49
2021/06/24 01:56:22;;;;;;;9.07;8.18;;;11.10;99.90;;;;;;4987532;28;20057;-48
2021/06/24 01:58:51;;;;;;;9.65;8.65;;;11.10;99.90;;;;;;4987373;28;20054;-47
2021/06/24 02:01:36;;;;;;;10.52;7.65;;;11.20;99.90;;;;;;4993295;28;20084;-46
2021/06/24 02:04:13;;;;;;;10.02;8.95;;;11.20;99.90;;;;;;5004933;28;20430;-49
2021/06/24 02:06:46;;;;;;;13.77;8.80;;;11.20;99.90;;;;;;5002861;28;20053;-46
2021/06/24 02:09:22;;;;;;;10.38;8.13;;;11.20;99.90;;;;;;4992878;28;20039;-45
2021/06/24 02:11:58;;;;;;;14.15;8.35;;;11.20;99.90;;;;;;4994279;28;20115;-46
2021/06/24 02:14:35;;;;;;;10.57;8.60;;;11.20;99.90;;;;;;5008947;28;20069;-46
2021/06/24 02:17:01;;;;;;;9.60;8.27;;;11.20;99.90;;;;;;5010679;28;20057;-49
2021/06/24 02:19:41;;;;;;;9.93;8.50;;;11.30;99.90;;;;;;5010065;28;20046;-48
2021/06/24 02:22:33;;;;;;;9.75;8.18;;;11.30;99.90;;;;;;5010534;28;20042;-46
2021/06/24 02:25:05;;;;;;;10.23;8.00;;;11.30;99.90;;;;;;5007316;28;20068;-48
2021/06/24 02:27:56;;;;;;;12.13;9.70;;;11.30;99.90;;;;;;5011337;28;20065;-51
2021/06/24 02:30:36;;;;;;;9.77;8.77;;;11.30;99.90;;;;;;5016595;28;20042;-48
2021/06/24 02:33:06;;;;;;;12.65;10.48;;;11.40;99.90;;;;;;4996722;28;20406;-47
2021/06/24 02:35:36;;;;;;;11.07;9.40;;;11.40;99.90;;;;;;4989393;28;20121;-49
2021/06/24 02:38:07;;;;;;;;;;;11.30;99.90;;;;;;4993098;28;20781;-46
2021/06/24 02:40:37;;;;;;;10.45;9.32;;;11.30;99.90;;;;;;5008583;28;20366;-48
2021/06/24 02:43:10;;;;;;;11.07;9.93;;;11.30;99.90;;;;;;5006774;28;20695;-46
2021/06/24 02:45:44;;;;;;;10.40;8.82;;;11.30;99.90;;;;;;4989795;28;20043;-50
2021/06/24 02:48:32;;;;;;;11.45;10.27;;;11.30;99.90;;;;;;4990044;28;20049;-48
2021/06/24 02:51:08;;;;;;;15.35;9.98;;;11.30;99.90;;;;;;4990216;28;20042;-49
2021/06/24 02:53:50;;;;;;;11.40;9.77;;;11.30;99.90;;;;;;4990246;28;20065;-48
2021/06/24 02:56:25;;;;;;;11.35;10.27;;;11.40;99.90;;;;;;4988548;28;20854;-46
2021/06/24 02:58:56;;;;;;;14.73;10.10;;;11.30;99.90;;;;;;4990104;28;20049;-48
2021/06/24 03:01:31;;;;;;;14.30;10.27;;;11.30;99.90;;;;;;4993981;28;20181;-44
2021/06/24 03:04:08;;;;;;;12.65;9.82;;;11.30;99.90;;;;;;4989839;28;20046;-46
2021/06/24 03:06:39;;;;;;;10.50;9.40;;;11.20;99.90;;;;;;5009071;28;20450;-51
2021/06/24 03:09:06;;;;;;;12.88;10.15;;;11.20;99.90;;;;;;5023691;28;20041;-46
2021/06/24 03:11:38;;;;;;;12.63;11.25;;;11.20;99.90;;;;;;5007882;28;20052;-47
2021/06/24 03:14:09;;;;;;;14.32;10.82;;;11.20;99.90;;;;;;5007271;28;20485;-49
2021/06/24 03:16:45;;;;;;;11.75;10.55;;;11.20;99.90;;;;;;4995262;28;20552;-49
2021/06/24 03:19:19;;;;;;;11.27;9.25;;;11.20;99.90;;;;;;4989549;28;20050;-48
2021/06/24 03:22:01;;;;;;;11.67;10.43;;;11.20;99.90;;;;;;4987675;28;20047;-46
2021/06/24 03:24:36;;;;;;;13.05;11.23;;;11.30;99.90;;;;;;4991757;28;20355;-47
2021/06/24 03:27:06;;;;;;;13.18;10.68;;;11.30;99.90;;;;;;5024085;28;20791;-45
2021/06/24 03:29:35;;;;;;;11.63;10.35;;;11.40;99.90;;;;;;5007724;28;20082;-46
2021/06/24 03:32:03;;;;;;;12.20;10.93;;;11.40;99.90;;;;;;5000516;28;20057;-44
2021/06/24 03:34:33;;;;;;;13.60;10.77;;;11.40;99.90;;;;;;4987992;28;20060;-46
2021/06/24 03:37:02;;;;;;;16.02;11.63;;;11.40;99.90;;;;;;4999782;28;20509;-44
2021/06/24 03:39:39;;;;;;;12.13;10.55;;;11.40;99.90;;;;;;5005670;28;20049;-47
2021/06/24 03:42:08;;;;;;;13.57;10.05;;;11.40;99.90;;;;;;5006674;28;20499;-49
2021/06/24 03:44:35;;;;;;;11.98;10.70;;;11.40;99.90;;;;;;5008000;28;20553;-45
2021/06/24 03:47:04;;;;;;;12.88;11.55;;;11.40;99.90;;;;;;5005390;28;20058;-47
2021/06/24 03:49:35;;;;;;;12.98;11.52;;;11.30;99.90;;;;;;4988124;28;20054;-46
2021/06/24 03:52:03;;;;;;;;;;;11.30;99.90;;;;;;4989639;28;20055;-48
2021/06/24 03:54:34;;;;;;;13.10;10.98;;;11.20;99.90;;;;;;4989758;28;19933;-45
2021/06/24 03:57:02;;;;;;;13.10;11.70;;;11.20;99.90;;;;;;5004891;28;20054;-45
2021/06/24 03:59:41;;;;;;;13.05;11.57;;;11.20;99.90;;;;;;4994777;28;20430;-47
2021/06/24 04:02:12;;;;;;;13.60;11.85;;;11.20;99.90;;;;;;5018479;28;20528;-46
2021/06/24 04:04:40;;;;;;;16.95;11.98;;;11.20;99.90;;;;;;5005773;28;20042;-46
2021/06/24 04:07:09;;;;;;;14.88;12.52;;;11.20;99.90;;;;;;5007667;28;20037;-46
2021/06/24 04:09:36;;;;;;;14.68;13.10;;;11.20;99.90;;;;;;5008854;28;20046;-47
2021/06/24 04:12:02;;;;;;;15.20;12.43;;;11.20;99.90;;;;;;4988461;28;20085;-47
2021/06/24 04:14:51;;;;;;;14.35;12.88;;;11.20;99.90;;;;;;4986465;28;20054;-48
2021/06/24 04:17:29;;;;;;;14.00;12.57;;;11.20;99.90;;;;;;4977037;28;20088;-47
2021/06/24 04:19:57;;;;;;;15.20;12.15;;;11.20;99.90;;;;;;4974397;28;20120;-47
2021/06/24 04:22:27;;;;;;;14.05;12.52;;;11.30;99.90;;;;;;5004965;28;20600;-47
2021/06/24 04:25:14;;;;;;;14.52;13.00;;;11.30;99.90;;;;;;4986296;28;20045;-45
2021/06/24 04:27:43;;;;;;;15.68;13.13;;;11.40;99.90;;;;;;4988074;28;20054;-48
2021/06/24 04:30:17;;;;;;;14.05;12.68;;;11.40;99.90;;;;;;4987378;28;20559;-47
2021/06/24 04:32:51;;;;;;;14.02;12.60;;;11.40;99.90;;;;;;4999864;28;20538;-46
2021/06/24 04:35:24;;;;;;;15.82;14.05;;;11.40;99.90;;;;;;5003565;28;20491;-48
2021/06/24 04:37:51;;;;;;;13.68;12.25;;;11.60;99.90;;;;;;4988004;28;20060;-47
2021/06/24 04:40:22;;;;;;;14.52;12.93;;;11.60;99.90;;;;;;4986953;28;20073;-44
2021/06/24 04:42:50;;;;;;;14.13;12.82;;;11.70;99.90;;;;;;5004467;28;20042;-47
2021/06/24 04:45:20;;;;;;;14.77;13.35;;;11.80;99.90;;;;;;4979242;28;20046;-47
2021/06/24 04:48:05;;;;;;;14.48;12.95;;;11.80;99.90;;;;;;4968070;28;20643;-47
2021/06/24 04:50:36;;;;;;;14.80;12.77;;;11.90;99.90;;;;;;4992831;28;20510;-49
2021/06/24 04:53:03;;;;;;;15.13;13.57;;;11.90;99.90;;;;;;4997918;28;20084;-47
2021/06/24 04:55:53;;;;;;;14.93;13.43;;;12.00;99.90;;;;;;4986636;28;20486;-46
2021/06/24 04:58:22;;;;;;;14.50;12.82;;;12.10;99.90;;;;;;4999133;28;20045;-50
2021/06/24 05:01:13;;;;;;;17.98;13.05;;;12.20;99.90;;;;;;4961902;28;20117;-49
2021/06/24 05:03:58;;;;;;;18.92;14.15;;;12.30;99.90;;;;;;4966466;28;20146;-49
2021/06/24 05:06:24;;;;;;;20.02;13.68;;;12.40;99.90;;;;;;4963753;28;20051;-50
2021/06/24 05:08:53;;;;;;;16.40;12.82;;;12.50;99.90;;;;;;4964282;28;20077;-50
2021/06/24 05:11:19;;;;;;;14.55;11.93;;;12.80;99.90;;;;;;4957548;28;20059;-47
2021/06/24 05:13:45;;;;;;;12.40;10.48;;;13.20;99.90;;;;;;4951150;28;20062;-47
2021/06/24 05:16:15;;;;;;;14.95;11.13;;;13.60;99.90;;;;;;4947582;28;20099;-48
2021/06/24 05:18:43;;;;;;;11.52;9.65;;;14.00;99.90;;;;;;4953106;28;20054;-47
2021/06/24 05:21:10;;;;;;;12.68;8.98;;;14.20;99.90;;;;;;4963974;28;20043;-48
2021/06/24 05:23:42;;;;;;;11.32;9.95;;;14.40;99.90;;;;;;4982710;28;20043;-48
2021/06/24 05:26:11;;;;;;;31.33;26.85;;;14.70;99.90;;;;;;4963929;28;20043;-47
2021/06/24 05:28:37;;;;;;;21.80;17.23;;;14.90;99.90;;;;;;4961108;28;20077;-50
2021/06/24 05:31:06;;;;;;;18.27;14.63;;;14.90;99.90;;;;;;4971637;28;20047;-48
2021/06/24 05:33:32;;;;;;;11.35;9.98;;;14.70;99.90;;;;;;4963661;28;20090;-47
2021/06/24 05:35:59;;;;;;;12.40;9.85;;;14.50;99.90;;;;;;4945723;28;20117;-49
2021/06/24 05:38:30;;;;;;;23.58;19.70;;;14.40;99.90;;;;;;4986487;28;20054;-48
2021/06/24 05:41:01;;;;;;;13.38;11.55;;;14.40;99.90;;;;;;5004884;28;20131;-49
2021/06/24 05:43:30;;;;;;;11.83;10.73;;;14.30;99.90;;;;;;5004299;28;20770;-48
2021/06/24 05:45:56;;;;;;;12.02;10.27;;;14.40;99.90;;;;;;5005368;28;20788;-49
2021/06/24 05:48:28;;;;;;;43.70;38.95;;;14.30;99.90;;;;;;4995418;28;20049;-46
2021/06/24 05:50:57;;;;;;;17.30;14.18;;;14.30;99.90;;;;;;5006165;28;20046;-49
2021/06/24 05:53:23;;;;;;;11.00;9.98;;;14.40;99.90;;;;;;5003222;28;20039;-52
2021/06/24 05:55:50;;;;;;;18.35;13.43;;;14.30;99.90;;;;;;5002499;28;20513;-47
2021/06/24 05:58:24;;;;;;;32.70;28.73;;;14.50;99.90;;;;;;4999773;28;20041;-47
2021/06/24 06:00:58;;;;;;;11.15;9.90;;;14.60;99.90;;;;;;5003598;28;20092;-49
2021/06/24 06:03:28;;;;;;;11.15;9.48;;;14.60;99.90;;;;;;5007449;28;20042;-49
2021/06/24 06:05:54;;;;;;;13.65;11.15;;;14.60;99.90;;;;;;5009613;28;20053;-48
2021/06/24 06:08:20;;;;;;;19.65;16.52;;;14.60;99.90;;;;;;5001461;28;20057;-47
2021/06/24 06:10:55;;;;;;;13.93;12.32;;;14.70;99.90;;;;;;4991478;28;20046;-49
2021/06/24 06:13:21;;;;;;;7.63;6.45;;;14.80;99.90;;;;;;4997577;28;20129;-48
2021/06/24 06:15:50;;;;;;;8.40;5.85;;;14.80;99.90;;;;;;4993501;28;20054;-47
2021/06/24 06:18:23;;;;;;;8.73;5.90;;;14.80;99.90;;;;;;5002713;28;20107;-47
2021/06/24 06:20:50;;;;;;;6.90;5.07;;;14.70;99.90;;;;;;5008937;28;20049;-48
2021/06/24 06:23:19;;;;;;;9.35;5.72;;;14.80;99.90;;;;;;4992955;28;20062;-45
2021/06/24 06:25:49;;;;;;;8.20;6.30;;;14.90;99.90;;;;;;5003783;28;20874;-49
2021/06/24 06:28:17;;;;;;;19.52;14.63;;;15.00;99.90;;;;;;5008360;28;20049;-53
2021/06/24 06:30:45;;;;;;;8.70;6.50;;;15.10;99.90;;;;;;5003513;28;20053;-46
2021/06/24 06:33:15;;;;;;;14.52;9.57;;;15.30;99.90;;;;;;4989143;28;20436;-46
2021/06/24 06:35:44;;;;;;;7.18;6.28;;;15.60;99.90;;;;;;4995080;28;20495;-48
2021/06/24 06:38:11;;;;;;;9.93;6.00;;;15.80;99.90;;;;;;5000045;28;20035;-48
2021/06/24 06:40:39;;;;;;;7.88;5.35;;;16.20;99.90;;;;;;5004127;28;20080;-48
2021/06/24 06:43:06;;;;;;;8.15;5.00;;;16.60;99.90;;;;;;4998866;28;20462;-48
2021/06/24 06:45:35;;;;;;;8.60;6.22;;;16.80;99.90;;;;;;5002970;28;20074;-48
2021/06/24 06:48:02;;;;;;;8.52;4.95;;;17.00;99.90;;;;;;4997582;28;20056;-46
2021/06/24 06:50:29;;;;;;;6.85;4.22;;;17.30;99.90;;;;;;5006467;28;20049;-47
2021/06/24 06:52:57;;;;;;;7.53;4.03;;;17.80;99.90;;;;;;5008708;28;20049;-49
2021/06/24 06:55:28;;;;;;;7.35;4.15;;;17.90;99.90;;;;;;5004875;28;20056;-45
2021/06/24 06:57:55;;;;;;;4.57;3.95;;;18.10;99.90;;;;;;5006964;28;20057;-47
2021/06/24 07:00:25;;;;;;;8.38;3.85;;;18.10;99.90;;;;;;5005479;28;20049;-46
2021/06/24 07:02:52;;;;;;;5.43;3.70;;;18.40;99.90;;;;;;5008829;28;20042;-47
2021/06/24 07:05:21;;;;;;;8.43;4.05;;;18.80;99.90;;;;;;5007282;28;20121;-48
2021/06/24 07:07:55;;;;;;;4.65;3.33;;;19.10;97.30;;;;;;5006769;28;20486;-48
2021/06/24 07:10:25;;;;;;;5.75;3.45;;;19.10;94.50;;;;;;5011523;28;20123;-51
2021/06/24 07:12:51;;;;;;;9.27;4.70;;;18.80;94.70;;;;;;5008877;28;20765;-47
2021/06/24 07:15:21;;;;;;;9.88;7.13;;;18.60;95.00;;;;;;5001192;28;20114;-47
2021/06/24 07:17:52;;;;;;;17.13;15.32;;;18.30;95.50;;;;;;4997494;28;20074;-46
2021/06/24 07:20:23;;;;;;;21.08;18.65;;;18.10;95.40;;;;;;4994657;28;20054;-46
2021/06/24 07:22:51;;;;;;;13.77;11.68;;;18.00;95.40;;;;;;4999862;28;20065;-47
2021/06/24 07:25:20;;;;;;;5.88;3.47;;;17.90;96.00;;;;;;5004747;28;20478;-48
2021/06/24 07:27:47;;;;;;;7.20;4.20;;;17.80;96.10;;;;;;4989507;28;20081;-48
2021/06/24 07:30:22;;;;;;;7.50;3.35;;;17.70;96.60;;;;;;5020115;28;20137;-50
2021/06/24 07:32:48;;;;;;;6.85;4.07;;;17.80;95.70;;;;;;5005658;28;20049;-48
2021/06/24 07:35:20;;;;;;;7.95;3.47;;;18.10;96.30;;;;;;5003799;28;20034;-47
2021/06/24 07:37:49;;;;;;;7.30;3.63;;;18.10;95.30;;;;;;5007666;28;20104;-46
2021/06/24 07:40:16;;;;;;;5.25;2.70;;;18.10;96.30;;;;;;5007235;28;20042;-49
2021/06/24 07:42:43;;;;;;;4.72;2.30;;;18.20;95.90;;;;;;5008915;28;20498;-48
2021/06/24 07:45:10;;;;;;;8.63;4.47;;;18.20;95.50;;;;;;5005303;28;20038;-46
2021/06/24 07:47:38;;;;;;;11.35;10.13;;;18.30;94.90;;;;;;5004512;28;20205;-48
2021/06/24 07:50:05;;;;;;;6.10;4.43;;;18.10;94.70;;;;;;4993306;28;20491;-47
2021/06/24 07:52:36;;;;;;;7.78;4.05;;;18.10;95.20;;;;;;4994118;28;20038;-46
2021/06/24 07:55:04;;;;;;;19.98;17.88;;;18.20;94.90;;;;;;5006095;28;20080;-47
2021/06/24 07:57:35;;;;;;;9.95;6.32;;;18.10;94.00;;;;;;4999624;28;20120;-46
2021/06/24 08:00:03;;;;;;;6.80;3.95;;;18.50;92.40;;;;;;5005344;28;20045;-48
2021/06/24 08:02:43;;;;;;;8.65;6.47;;;19.10;93.30;;;;;;5010346;28;20494;-46
2021/06/24 08:05:18;;;;;;;12.93;10.75;;;19.30;92.50;;;;;;5006400;28;20046;-46
2021/06/24 08:07:52;;;;;;;7.38;4.43;;;19.20;91.70;;;;;;5004109;28;20180;-47
2021/06/24 08:10:26;;;;;;;16.42;12.27;;;19.10;91.70;;;;;;5006753;28;20045;-48
2021/06/24 08:12:52;;;;;;;6.72;4.50;;;18.90;90.80;;;;;;5005405;28;20052;-48
2021/06/24 08:15:26;;;;;;;10.75;8.13;;;18.70;92.00;;;;;;5005897;28;20046;-46
2021/06/24 08:17:53;;;;;;;7.38;4.07;;;18.70;91.90;;;;;;5007995;28;20111;-47
2021/06/24 08:20:22;;;;;;;11.23;7.47;;;19.10;92.20;;;;;;5010636;28;20030;-46
2021/06/24 08:22:53;;;;;;;5.13;3.47;;;19.70;87.70;;;;;;5005639;28;20042;-48
2021/06/24 08:25:23;;;;;;;5.43;3.25;;;19.80;88.60;;;;;;5004561;28;20500;-46
2021/06/24 08:27:50;;;;;;;14.30;11.23;;;20.40;84.80;;;;;;5004019;28;20046;-49
2021/06/24 08:30:20;;;;;;;6.80;4.10;;;20.70;81.80;;;;;;4996701;28;20787;-46
2021/06/24 08:32:52;;;;;;;24.55;21.65;;;20.50;81.10;;;;;;5006008;28;20050;-49
2021/06/24 08:35:18;;;;;;;15.75;13.65;;;20.30;79.10;;;;;;5007824;28;20137;-46
2021/06/24 08:37:47;;;;;;;15.52;13.13;;;20.00;80.80;;;;;;5004401;28;20541;-50
2021/06/24 08:40:15;;;;;;;7.43;5.60;;;20.20;80.60;;;;;;4996190;28;20049;-49
2021/06/24 08:42:47;;;;;;;7.57;4.22;;;20.30;80.40;;;;;;4988641;28;20068;-47
2021/06/24 08:45:14;;;;;;;6.13;4.72;;;20.70;79.50;;;;;;5006364;28;20054;-50
2021/06/24 08:47:44;;;;;;;6.63;4.65;;;21.00;79.30;;;;;;5003380;28;20054;-48
2021/06/24 08:50:12;;;;;;;7.30;5.03;;;20.90;76.70;;;;;;4997963;28;20058;-48
2021/06/24 08:52:38;;;;;;;11.30;7.97;;;20.90;78.20;;;;;;5008224;28;20076;-49
2021/06/24 08:55:07;;;;;;;5.20;3.00;;;20.40;77.40;;;;;;4997437;28;20053;-45
2021/06/24 08:57:38;;;;;;;6.43;3.13;;;20.30;78.10;;;;;;4995545;28;20045;-51
2021/06/24 09:00:09;;;;;;;10.27;3.35;;;20.10;80.30;;;;;;5006874;28;20454;-47
2021/06/24 09:02:38;;;;;;;6.05;3.28;;;20.00;80.80;;;;;;5003092;28;20084;-51
2021/06/24 09:05:05;;;;;;;5.63;4.15;;;19.80;80.30;;;;;;5007068;28;20565;-49
2021/06/24 09:07:54;;;;;;;5.80;3.20;;;19.70;81.90;;;;;;5007526;28;20398;-47
2021/06/24 09:10:24;;;;;;;6.60;4.57;;;19.70;83.20;;;;;;5023487;28;20552;-49
2021/06/24 09:12:55;;;;;;;6.15;3.90;;;19.60;83.40;;;;;;5008321;28;20092;-48
2021/06/24 09:15:33;;;;;;;8.90;5.85;;;19.50;83.00;;;;;;5008035;28;20045;-46
2021/06/24 09:18:02;;;;;;;7.82;5.15;;;19.60;82.80;;;;;;5006185;28;20046;-48
2021/06/24 09:20:33;;;;;;;4.47;3.03;;;19.40;83.40;;;;;;5001113;28;20368;-50
2021/06/24 09:23:15;;;;;;;16.05;12.75;;;19.60;84.10;;;;;;5008297;28;20068;-50
2021/06/24 09:25:50;;;;;;;6.85;4.45;;;19.70;81.90;;;;;;5000894;28;20046;-47
2021/06/24 09:28:47;;;;;;;5.20;3.55;;;19.90;83.40;;;;;;4995775;28;20065;-51
2021/06/24 09:31:29;;;;;;;5.40;3.17;;;20.00;78.50;;;;;;4979002;28;20124;-48
2021/06/24 09:34:07;;;;;;;8.35;5.95;;;20.00;80.60;;;;;;5000455;28;20038;-47
2021/06/24 09:36:49;;;;;;;7.32;5.72;;;20.40;81.40;;;;;;4998760;28;20387;-49
2021/06/24 09:39:26;;;;;;;6.95;5.05;;;20.70;79.40;;;;;;5007173;28;20054;-46
2021/06/24 09:42:03;;;;;;;4.53;2.55;;;20.60;78.70;;;;;;5007200;28;20050;-47
2021/06/24 09:44:31;;;;;;;4.68;3.13;;;20.70;78.80;;;;;;5004061;28;20050;-50
2021/06/24 09:46:59;;;;;;;14.68;12.32;;;20.40;79.20;;;;;;5005409;28;20053;-46
2021/06/24 09:49:31;;;;;;;5.00;2.83;;;20.30;79.10;;;;;;5005639;28;20042;-45
2021/06/24 09:51:59;;;;;;;4.15;3.03;;;20.10;78.10;;;;;;5011860;28;20049;-50
2021/06/24 09:54:46;;;;;;;5.75;3.58;;;19.90;78.90;;;;;;5013240;28;20121;-49
2021/06/24 09:57:23;;;;;;;6.65;3.33;;;19.90;81.70;;;;;;5005637;28;20046;-46
2021/06/24 09:59:54;;;;;;;5.95;3.22;;;20.20;79.00;;;;;;5004988;28;20049;-45
2021/06/24 10:02:21;;;;;;;5.25;3.40;;;20.20;80.30;;;;;;5008686;28;20458;-49
2021/06/24 10:04:48;;;;;;;5.30;3.17;;;20.00;78.70;;;;;;5006821;28;20479;-46
2021/06/24 10:07:21;;;;;;;5.07;4.13;;;20.00;80.40;;;;;;5006827;28;20093;-48
2021/06/24 10:09:47;;;;;;;6.03;2.63;;;20.20;78.80;;;;;;5003406;28;20058;-47
2021/06/24 10:12:20;;;;;;;7.30;5.13;;;20.40;80.50;;;;;;5006401;28;20080;-51
2021/06/24 10:14:47;;;;;;;3.65;2.60;;;20.50;80.10;;;;;;5007375;28;20045;-51
2021/06/24 10:17:15;;;;;;;40.75;35.63;;;20.60;78.40;;;;;;5005179;28;20752;-47
2021/06/24 10:19:43;;;;;;;4.78;3.60;;;20.80;79.20;;;;;;5006231;28;20065;-48
2021/06/24 10:22:28;;;;;;;7.18;3.20;;;20.60;77.70;;;;;;5007801;28;20046;-47
2021/06/24 10:25:02;;;;;;;6.20;3.00;;;20.60;80.00;;;;;;5005085;28;20050;-49
2021/06/24 10:27:51;;;;;;;7.25;4.78;;;20.60;80.00;;;;;;5006896;28;20049;-50
2021/06/24 10:30:21;;;;;;;11.38;9.48;;;20.50;76.90;;;;;;5002498;28;20136;-47
2021/06/24 10:32:56;;;;;;;11.75;8.32;;;20.40;75.50;;;;;;5006938;28;20045;-46
2021/06/24 10:35:26;;;;;;;5.20;3.17;;;20.50;74.20;;;;;;5009584;28;20057;-52
2021/06/24 10:38:04;;;;;;;10.90;6.40;;;20.70;76.60;;;;;;5010311;28;20509;-46
2021/06/24 10:40:57;;;;;;;5.22;2.83;;;20.80;76.00;;;;;;5010059;28;20045;-49
2021/06/24 10:43:24;;;;;;;3.97;2.45;;;20.90;74.40;;;;;;5015323;28;20085;-48
2021/06/24 10:46:12;;;;;;;13.00;9.23;;;20.90;73.40;;;;;;5005764;28;20490;-48
2021/06/24 10:48:38;;;;;;;4.60;2.35;;;21.20;65.70;;;;;;5009644;28;20124;-53
2021/06/24 10:51:11;;;;;;;12.82;10.55;;;21.90;68.40;;;;;;5013594;28;20443;-52
2021/06/24 10:53:55;;;;;;;3.72;2.15;;;22.20;66.80;;;;;;5009784;28;20053;-50
2021/06/24 10:56:25;;;;;;;3.70;2.15;;;22.40;62.00;;;;;;5008701;28;20502;-49
2021/06/24 10:58:54;;;;;;;6.68;4.65;;;22.30;67.60;;;;;;5009300;28;20056;-50
2021/06/24 11:01:44;;;;;;;6.53;3.92;;;21.80;66.60;;;;;;5010071;28;20074;-47
2021/06/24 11:04:40;;;;;;;5.10;2.47;;;22.00;68.70;;;;;;5006081;28;20049;-51
2021/06/24 11:07:19;;;;;;;4.60;2.88;;;21.80;65.90;;;;;;4972556;28;20054;-45
2021/06/24 11:10:14;;;;;;;5.50;3.13;;;21.70;66.70;;;;;;4974221;28;20057;-47
2021/06/24 11:12:56;;;;;;;5.45;2.72;;;21.60;69.80;;;;;;4986628;28;20569;-49
2021/06/24 11:15:44;;;;;;;5.03;2.72;;;21.70;68.60;;;;;;4983611;28;20054;-48
2021/06/24 11:18:30;;;;;;;5.47;3.20;;;21.60;68.30;;;;;;4978751;28;20054;-46
2021/06/24 11:21:22;;;;;;;4.90;2.95;;;22.10;72.10;;;;;;4986515;28;20050;-47
2021/06/24 11:23:59;;;;;;;5.45;2.92;;;22.30;67.20;;;;;;4900190;29;20053;-46
2021/06/24 11:26:28;;;;;;;6.10;3.22;;;22.90;65.60;;;;;;4891861;29;20235;-48
2021/06/24 11:29:02;;;;;;;4.25;2.60;;;23.70;65.90;;;;;;4893719;29;20193;-46
2021/06/24 11:31:46;;;;;;;4.40;2.30;;;24.10;62.70;;;;;;4909789;29;20048;-46
2021/06/24 11:34:30;;;;;;;4.57;2.80;;;24.40;58.60;;;;;;4884130;29;20049;-46
2021/06/24 11:37:06;;;;;;;15.05;12.98;;;24.30;63.00;;;;;;4902192;29;20075;-50
2021/06/24 11:39:38;;;;;;;5.15;2.97;;;24.20;59.20;;;;;;4890373;29;20040;-46
2021/06/24 11:42:15;;;;;;;5.70;2.17;;;23.40;60.00;;;;;;4883082;29;20060;-51
2021/06/24 11:44:48;;;;;;;4.35;2.55;;;23.30;62.60;;;;;;4920518;29;20052;-49
2021/06/24 11:47:18;;;;;;;6.18;2.38;;;23.50;61.50;;;;;;4928890;29;20203;-51
2021/06/24 12:04:15;;;;;;;4.05;2.60;;;22.90;63.00;;;;;;5009226;28;20383;-49
2021/06/24 12:06:59;;;;;;;4.80;2.67;;;22.80;63.50;;;;;;5014709;28;20565;-47
2021/06/24 12:09:37;;;;;;;4.75;2.53;;;23.00;64.50;;;;;;4991564;28;20108;-51
2021/06/24 12:12:04;;;;;;;5.32;3.92;;;22.80;62.90;;;;;;5008529;28;20101;-48
2021/06/24 12:14:32;;;;;;;4.20;2.67;;;22.80;63.30;;;;;;5007467;28;20124;-49
2021/06/24 12:17:11;;;;;;;6.40;5.25;;;22.80;64.60;;;;;;5007770;28;20049;-49
2021/06/24 12:19:42;;;;;;;3.58;2.20;;;22.60;66.50;;;;;;5007100;28;20050;-49
2021/06/24 12:22:08;;;;;;;3.95;2.13;;;22.30;64.80;;;;;;5007735;28;20050;-52
2021/06/24 12:24:34;;;;;;;20.65;18.55;;;22.40;65.20;;;;;;5007090;28;20050;-48
2021/06/24 12:27:26;;;;;;;8.95;7.68;;;22.30;66.20;;;;;;5008147;28;20060;-47
2021/06/24 12:29:56;;;;;;;7.88;6.38;;;22.40;67.40;;;;;;5007038;28;20053;-48
2021/06/24 12:32:22;;;;;;;4.75;3.78;;;22.60;66.20;;;;;;5006506;28;20368;-49
2021/06/24 12:34:52;;;;;;;4.80;2.55;;;23.10;66.60;;;;;;5007463;28;20050;-50
2021/06/24 12:37:51;;;;;;;50.65;45.47;;;23.30;64.10;;;;;;5008661;28;20068;-52
2021/06/24 12:40:19;;;;;;;45.03;40.60;;;23.10;63.40;;;;;;4965048;28;20050;-46
2021/06/24 12:42:54;;;;;;;7.05;6.10;;;23.40;64.80;;;;;;4949590;28;20121;-51
2021/06/24 12:45:23;;;;;;;5.20;3.00;;;23.80;63.60;;;;;;4965501;28;20049;-48
2021/06/24 12:47:51;;;;;;;6.40;4.10;;;23.60;60.40;;;;;;4968111;28;20058;-46
2021/06/24 12:50:27;;;;;;;10.35;8.85;;;23.60;62.90;;;;;;4961891;28;20070;-49
2021/06/24 12:52:59;;;;;;;5.50;3.17;;;23.40;62.10;;;;;;4959448;28;20053;-47
2021/06/24 12:55:42;;;;;;;9.68;7.85;;;23.10;63.10;;;;;;4962382;28;20043;-47
2021/06/24 12:58:12;;;;;;;35.80;32.25;;;23.00;63.20;;;;;;4950131;28;20479;-51
2021/06/24 13:00:40;;;;;;;5.63;3.70;;;22.70;63.80;;;;;;4964312;28;20056;-49
2021/06/24 13:03:06;;;;;;;5.03;2.92;;;22.40;65.60;;;;;;4965026;28;20047;-50
2021/06/24 13:05:34;;;;;;;3.70;2.67;;;22.40;66.10;;;;;;4972105;28;20487;-47
2021/06/24 13:08:08;;;;;;;5.75;4.15;;;23.00;65.20;;;;;;4989986;28;20050;-49
2021/06/24 13:10:48;;;;;;;5.90;4.50;;;23.20;62.40;;;;;;4965327;28;20047;-49
2021/06/24 13:13:33;;;;;;;5.88;4.20;;;23.10;62.90;;;;;;4966006;28;20047;-49
2021/06/24 13:16:19;;;;;;;49.45;44.80;;;22.90;65.00;;;;;;4977444;28;20057;-51
2021/06/24 13:18:55;;;;;;;9.27;8.38;;;23.00;65.30;;;;;;4988604;28;20050;-49